sensor_id;sensor_type;location;lat;lon;timestamp;P1;durP1;ratioP1;P2;durP2;ratioP2
7263;SDS011;3673;52.480;13.348;2024-03-08T00:01:36;39.05;;;20.38;;
7263;SDS011;3673;52.480;13.348;2024-03-08T00:04:03;33.78;;;20.55;;
7263;SDS011;3673;52.480;13.348;2024-03-08T00:06:31;35.33;;;20.52;;
7263;SDS011;3673;52.480;13.348;2024-03-08T00:08:59;33.05;;;20.30;;
7263;SDS011;3673;52.480;13.348;2024-03-08T00:11:26;33.80;;;19.40;;
7263;SDS011;3673;52.480;13.348;2024-03-08T00:13:52;31.83;;;18.95;;
7263;SDS011;3673;52.480;13.348;2024-03-08T00:16:19;34.28;;;19.00;;
7263;SDS011;3673;52.480;13.348;2024-03-08T00:18:48;28.92;;;18.45;;
7263;SDS011;3673;52.480;13.348;2024-03-08T00:21:15;30.40;;;18.52;;
7263;SDS011;3673;52.480;13.348;2024-03-08T00:23:42;38.70;;;19.02;;
7263;SDS011;3673;52.480;13.348;2024-03-08T00:26:10;37.92;;;19.77;;
7263;SDS011;3673;52.480;13.348;2024-03-08T00:28:39;33.40;;;18.45;;
7263;SDS011;3673;52.480;13.348;2024-03-08T00:31:06;31.83;;;18.35;;
7263;SDS011;3673;52.480;13.348;2024-03-08T00:33:33;31.70;;;17.58;;
7263;SDS011;3673;52.480;13.348;2024-03-08T00:35:59;34.85;;;18.27;;
7263;SDS011;3673;52.480;13.348;2024-03-08T00:38:26;33.42;;;18.80;;
7263;SDS011;3673;52.480;13.348;2024-03-08T00:40:53;32.78;;;19.25;;
7263;SDS011;3673;52.480;13.348;2024-03-08T00:43:22;37.20;;;18.35;;
7263;SDS011;3673;52.480;13.348;2024-03-08T00:45:49;32.10;;;18.40;;
7263;SDS011;3673;52.480;13.348;2024-03-08T00:48:15;34.92;;;17.65;;
7263;SDS011;3673;52.480;13.348;2024-03-08T00:50:42;29.55;;;18.10;;
7263;SDS011;3673;52.480;13.348;2024-03-08T00:53:10;32.80;;;19.38;;
7263;SDS011;3673;52.480;13.348;2024-03-08T00:55:37;33.55;;;19.33;;
7263;SDS011;3673;52.480;13.348;2024-03-08T00:58:06;32.00;;;18.98;;
7263;SDS011;3673;52.480;13.348;2024-03-08T01:00:35;30.85;;;17.42;;
7263;SDS011;3673;52.480;13.348;2024-03-08T01:03:03;30.73;;;17.05;;
7263;SDS011;3673;52.480;13.348;2024-03-08T01:05:31;33.30;;;18.90;;
7263;SDS011;3673;52.480;13.348;2024-03-08T01:08:00;30.48;;;17.77;;
7263;SDS011;3673;52.480;13.348;2024-03-08T01:10:28;35.28;;;16.88;;
7263;SDS011;3673;52.480;13.348;2024-03-08T01:12:54;32.13;;;18.35;;
7263;SDS011;3673;52.480;13.348;2024-03-08T01:15:21;30.88;;;17.60;;
7263;SDS011;3673;52.480;13.348;2024-03-08T01:17:50;34.35;;;18.38;;
7263;SDS011;3673;52.480;13.348;2024-03-08T01:20:16;32.47;;;19.10;;
7263;SDS011;3673;52.480;13.348;2024-03-08T01:22:43;31.98;;;18.10;;
7263;SDS011;3673;52.480;13.348;2024-03-08T01:25:10;34.33;;;18.95;;
7263;SDS011;3673;52.480;13.348;2024-03-08T01:27:37;32.38;;;18.05;;
7263;SDS011;3673;52.480;13.348;2024-03-08T01:30:04;31.05;;;18.05;;
7263;SDS011;3673;52.480;13.348;2024-03-08T01:32:34;27.95;;;17.33;;
7263;SDS011;3673;52.480;13.348;2024-03-08T01:35:02;29.95;;;17.33;;
7263;SDS011;3673;52.480;13.348;2024-03-08T01:37:30;36.13;;;17.30;;
7263;SDS011;3673;52.480;13.348;2024-03-08T01:39:57;34.95;;;16.52;;
7263;SDS011;3673;52.480;13.348;2024-03-08T01:42:23;33.30;;;18.10;;
7263;SDS011;3673;52.480;13.348;2024-03-08T01:44:51;31.25;;;18.05;;
7263;SDS011;3673;52.480;13.348;2024-03-08T01:47:18;26.27;;;16.42;;
7263;SDS011;3673;52.480;13.348;2024-03-08T01:49:45;33.47;;;18.75;;
7263;SDS011;3673;52.480;13.348;2024-03-08T01:52:13;35.45;;;19.77;;
7263;SDS011;3673;52.480;13.348;2024-03-08T01:54:40;32.13;;;18.23;;
7263;SDS011;3673;52.480;13.348;2024-03-08T01:57:07;30.00;;;17.23;;
7263;SDS011;3673;52.480;13.348;2024-03-08T01:59:34;32.35;;;18.30;;
7263;SDS011;3673;52.480;13.348;2024-03-08T02:02:01;34.05;;;18.77;;
7263;SDS011;3673;52.480;13.348;2024-03-08T02:04:31;35.13;;;19.00;;
7263;SDS011;3673;52.480;13.348;2024-03-08T02:06:58;31.45;;;17.95;;
7263;SDS011;3673;52.480;13.348;2024-03-08T02:09:26;31.52;;;19.00;;
7263;SDS011;3673;52.480;13.348;2024-03-08T02:11:54;35.28;;;18.55;;
7263;SDS011;3673;52.480;13.348;2024-03-08T02:14:22;31.20;;;17.20;;
7263;SDS011;3673;52.480;13.348;2024-03-08T02:16:49;29.90;;;18.20;;
7263;SDS011;3673;52.480;13.348;2024-03-08T02:19:16;32.38;;;18.52;;
7263;SDS011;3673;52.480;13.348;2024-03-08T02:21:46;32.30;;;19.20;;
7263;SDS011;3673;52.480;13.348;2024-03-08T02:24:13;32.78;;;17.35;;
7263;SDS011;3673;52.480;13.348;2024-03-08T02:26:40;33.05;;;17.98;;
7263;SDS011;3673;52.480;13.348;2024-03-08T02:29:08;36.30;;;19.45;;
7263;SDS011;3673;52.480;13.348;2024-03-08T02:31:35;33.05;;;18.42;;
7263;SDS011;3673;52.480;13.348;2024-03-08T02:34:02;30.05;;;17.48;;
7263;SDS011;3673;52.480;13.348;2024-03-08T02:36:30;44.15;;;23.15;;
7263;SDS011;3673;52.480;13.348;2024-03-08T02:39:01;48.28;;;25.80;;
7263;SDS011;3673;52.480;13.348;2024-03-08T02:41:28;52.85;;;29.15;;
7263;SDS011;3673;52.480;13.348;2024-03-08T02:43:54;45.10;;;23.58;;
7263;SDS011;3673;52.480;13.348;2024-03-08T02:46:21;45.08;;;21.90;;
7263;SDS011;3673;52.480;13.348;2024-03-08T02:48:48;43.38;;;23.08;;
7263;SDS011;3673;52.480;13.348;2024-03-08T02:51:15;32.60;;;19.40;;
7263;SDS011;3673;52.480;13.348;2024-03-08T02:53:42;30.27;;;18.35;;
7263;SDS011;3673;52.480;13.348;2024-03-08T02:56:10;36.83;;;18.45;;
7263;SDS011;3673;52.480;13.348;2024-03-08T02:58:41;35.17;;;17.75;;
7263;SDS011;3673;52.480;13.348;2024-03-08T03:01:08;32.80;;;19.17;;
7263;SDS011;3673;52.480;13.348;2024-03-08T03:03:35;35.20;;;18.10;;
7263;SDS011;3673;52.480;13.348;2024-03-08T03:06:02;35.38;;;18.42;;
7263;SDS011;3673;52.480;13.348;2024-03-08T03:08:29;30.63;;;18.58;;
7263;SDS011;3673;52.480;13.348;2024-03-08T03:10:56;33.83;;;18.50;;
7263;SDS011;3673;52.480;13.348;2024-03-08T03:13:24;31.17;;;18.10;;
7263;SDS011;3673;52.480;13.348;2024-03-08T03:15:51;34.00;;;18.58;;
7263;SDS011;3673;52.480;13.348;2024-03-08T03:18:18;32.08;;;18.48;;
7263;SDS011;3673;52.480;13.348;2024-03-08T03:20:46;34.05;;;18.45;;
7263;SDS011;3673;52.480;13.348;2024-03-08T03:23:14;29.35;;;18.35;;
7263;SDS011;3673;52.480;13.348;2024-03-08T03:25:45;31.58;;;18.17;;
7263;SDS011;3673;52.480;13.348;2024-03-08T03:28:12;31.85;;;17.70;;
7263;SDS011;3673;52.480;13.348;2024-03-08T03:30:44;32.58;;;19.00;;
7263;SDS011;3673;52.480;13.348;2024-03-08T03:33:11;35.05;;;19.60;;
7263;SDS011;3673;52.480;13.348;2024-03-08T03:35:40;32.28;;;18.10;;
7263;SDS011;3673;52.480;13.348;2024-03-08T03:38:07;31.48;;;18.17;;
7263;SDS011;3673;52.480;13.348;2024-03-08T03:40:35;31.75;;;19.02;;
7263;SDS011;3673;52.480;13.348;2024-03-08T03:43:03;33.47;;;18.80;;
7263;SDS011;3673;52.480;13.348;2024-03-08T03:45:30;34.65;;;19.90;;
7263;SDS011;3673;52.480;13.348;2024-03-08T03:48:01;32.03;;;18.67;;
7263;SDS011;3673;52.480;13.348;2024-03-08T03:50:29;30.02;;;18.45;;
7263;SDS011;3673;52.480;13.348;2024-03-08T03:52:59;34.15;;;18.65;;
7263;SDS011;3673;52.480;13.348;2024-03-08T03:55:26;34.00;;;18.90;;
7263;SDS011;3673;52.480;13.348;2024-03-08T03:57:53;39.08;;;22.88;;
7263;SDS011;3673;52.480;13.348;2024-03-08T04:00:20;39.25;;;21.77;;
7263;SDS011;3673;52.480;13.348;2024-03-08T04:02:47;34.13;;;20.02;;
7263;SDS011;3673;52.480;13.348;2024-03-08T04:05:15;37.65;;;20.08;;
7263;SDS011;3673;52.480;13.348;2024-03-08T04:07:41;34.40;;;20.02;;
7263;SDS011;3673;52.480;13.348;2024-03-08T04:10:09;37.80;;;20.50;;
7263;SDS011;3673;52.480;13.348;2024-03-08T04:12:37;35.80;;;20.88;;
7263;SDS011;3673;52.480;13.348;2024-03-08T04:15:04;33.75;;;20.23;;
7263;SDS011;3673;52.480;13.348;2024-03-08T04:17:32;33.03;;;20.00;;
7263;SDS011;3673;52.480;13.348;2024-03-08T04:20:00;38.58;;;20.75;;
7263;SDS011;3673;52.480;13.348;2024-03-08T04:22:34;34.80;;;19.77;;
7263;SDS011;3673;52.480;13.348;2024-03-08T04:25:00;33.70;;;18.52;;
7263;SDS011;3673;52.480;13.348;2024-03-08T04:27:28;33.25;;;19.58;;
7263;SDS011;3673;52.480;13.348;2024-03-08T04:29:54;36.85;;;22.17;;
7263;SDS011;3673;52.480;13.348;2024-03-08T04:32:22;38.67;;;20.67;;
7263;SDS011;3673;52.480;13.348;2024-03-08T04:34:48;41.65;;;20.95;;
7263;SDS011;3673;52.480;13.348;2024-03-08T04:37:15;40.33;;;21.73;;
7263;SDS011;3673;52.480;13.348;2024-03-08T04:39:44;37.03;;;20.75;;
7263;SDS011;3673;52.480;13.348;2024-03-08T04:42:11;39.05;;;21.38;;
7263;SDS011;3673;52.480;13.348;2024-03-08T04:44:39;41.25;;;23.40;;
7263;SDS011;3673;52.480;13.348;2024-03-08T04:47:06;37.67;;;21.88;;
7263;SDS011;3673;52.480;13.348;2024-03-08T04:49:32;40.92;;;21.77;;
7263;SDS011;3673;52.480;13.348;2024-03-08T04:52:00;37.30;;;20.83;;
7263;SDS011;3673;52.480;13.348;2024-03-08T04:54:28;47.72;;;23.27;;
7263;SDS011;3673;52.480;13.348;2024-03-08T04:56:56;44.70;;;22.35;;
7263;SDS011;3673;52.480;13.348;2024-03-08T04:59:25;42.17;;;21.98;;
7263;SDS011;3673;52.480;13.348;2024-03-08T05:01:51;38.78;;;20.92;;
7263;SDS011;3673;52.480;13.348;2024-03-08T05:04:18;43.95;;;21.88;;
7263;SDS011;3673;52.480;13.348;2024-03-08T05:06:45;38.28;;;23.30;;
7263;SDS011;3673;52.480;13.348;2024-03-08T05:09:12;38.38;;;22.45;;
7263;SDS011;3673;52.480;13.348;2024-03-08T05:11:39;45.97;;;22.48;;
7263;SDS011;3673;52.480;13.348;2024-03-08T05:14:07;40.92;;;23.02;;
7263;SDS011;3673;52.480;13.348;2024-03-08T05:16:34;39.20;;;22.55;;
7263;SDS011;3673;52.480;13.348;2024-03-08T05:19:01;37.00;;;21.30;;
7263;SDS011;3673;52.480;13.348;2024-03-08T05:21:28;42.42;;;23.48;;
7263;SDS011;3673;52.480;13.348;2024-03-08T05:23:55;41.75;;;21.85;;
7263;SDS011;3673;52.480;13.348;2024-03-08T05:26:22;45.35;;;23.40;;
7263;SDS011;3673;52.480;13.348;2024-03-08T05:28:48;36.05;;;21.10;;
7263;SDS011;3673;52.480;13.348;2024-03-08T05:31:19;43.35;;;21.48;;
7263;SDS011;3673;52.480;13.348;2024-03-08T05:33:47;41.15;;;22.65;;
7263;SDS011;3673;52.480;13.348;2024-03-08T05:36:14;39.20;;;22.38;;
7263;SDS011;3673;52.480;13.348;2024-03-08T05:38:42;36.55;;;21.83;;
7263;SDS011;3673;52.480;13.348;2024-03-08T05:41:09;39.60;;;21.88;;
7263;SDS011;3673;52.480;13.348;2024-03-08T05:43:36;41.50;;;22.27;;
7263;SDS011;3673;52.480;13.348;2024-03-08T05:46:03;36.53;;;21.77;;
7263;SDS011;3673;52.480;13.348;2024-03-08T05:48:31;45.17;;;23.38;;
7263;SDS011;3673;52.480;13.348;2024-03-08T05:50:58;41.03;;;23.08;;
7263;SDS011;3673;52.480;13.348;2024-03-08T05:53:26;47.25;;;22.05;;
7263;SDS011;3673;52.480;13.348;2024-03-08T05:55:55;40.03;;;23.75;;
7263;SDS011;3673;52.480;13.348;2024-03-08T05:58:22;46.55;;;22.85;;
7263;SDS011;3673;52.480;13.348;2024-03-08T06:00:49;42.65;;;22.65;;
7263;SDS011;3673;52.480;13.348;2024-03-08T06:03:15;41.42;;;23.33;;
7263;SDS011;3673;52.480;13.348;2024-03-08T06:05:46;45.03;;;23.15;;
7263;SDS011;3673;52.480;13.348;2024-03-08T06:08:14;43.13;;;23.17;;
7263;SDS011;3673;52.480;13.348;2024-03-08T06:10:41;43.10;;;23.20;;
7263;SDS011;3673;52.480;13.348;2024-03-08T06:13:07;45.85;;;23.67;;
7263;SDS011;3673;52.480;13.348;2024-03-08T06:15:37;41.63;;;25.10;;
7263;SDS011;3673;52.480;13.348;2024-03-08T06:18:04;42.20;;;22.90;;
7263;SDS011;3673;52.480;13.348;2024-03-08T06:20:33;39.65;;;22.42;;
7263;SDS011;3673;52.480;13.348;2024-03-08T06:23:01;41.22;;;22.52;;
7263;SDS011;3673;52.480;13.348;2024-03-08T06:25:27;41.35;;;23.38;;
7263;SDS011;3673;52.480;13.348;2024-03-08T06:27:54;38.55;;;23.60;;
7263;SDS011;3673;52.480;13.348;2024-03-08T06:30:21;37.33;;;22.65;;
7263;SDS011;3673;52.480;13.348;2024-03-08T06:32:48;45.47;;;23.45;;
7263;SDS011;3673;52.480;13.348;2024-03-08T06:35:15;44.50;;;23.60;;
7263;SDS011;3673;52.480;13.348;2024-03-08T06:37:41;40.97;;;24.17;;
7263;SDS011;3673;52.480;13.348;2024-03-08T06:40:11;45.00;;;24.65;;
7263;SDS011;3673;52.480;13.348;2024-03-08T06:42:39;43.90;;;24.10;;
7263;SDS011;3673;52.480;13.348;2024-03-08T06:45:06;43.47;;;23.60;;
7263;SDS011;3673;52.480;13.348;2024-03-08T06:47:35;42.05;;;23.38;;
7263;SDS011;3673;52.480;13.348;2024-03-08T06:50:02;43.08;;;24.88;;
7263;SDS011;3673;52.480;13.348;2024-03-08T06:52:30;42.00;;;23.17;;
7263;SDS011;3673;52.480;13.348;2024-03-08T06:54:58;43.33;;;23.40;;
7263;SDS011;3673;52.480;13.348;2024-03-08T06:57:28;43.67;;;24.40;;
7263;SDS011;3673;52.480;13.348;2024-03-08T06:59:54;49.65;;;23.63;;
7263;SDS011;3673;52.480;13.348;2024-03-08T07:02:22;42.17;;;23.10;;
7263;SDS011;3673;52.480;13.348;2024-03-08T07:04:50;39.08;;;21.98;;
7263;SDS011;3673;52.480;13.348;2024-03-08T07:07:18;33.75;;;20.52;;
7263;SDS011;3673;52.480;13.348;2024-03-08T07:09:46;41.78;;;23.00;;
7263;SDS011;3673;52.480;13.348;2024-03-08T07:12:14;36.83;;;22.05;;
7263;SDS011;3673;52.480;13.348;2024-03-08T07:14:43;35.83;;;21.58;;
7263;SDS011;3673;52.480;13.348;2024-03-08T07:17:10;38.33;;;21.67;;
7263;SDS011;3673;52.480;13.348;2024-03-08T07:19:38;39.40;;;22.00;;
7263;SDS011;3673;52.480;13.348;2024-03-08T07:22:05;36.30;;;20.73;;
7263;SDS011;3673;52.480;13.348;2024-03-08T07:24:34;40.65;;;22.08;;
7263;SDS011;3673;52.480;13.348;2024-03-08T07:27:20;43.53;;;22.65;;
7263;SDS011;3673;52.480;13.348;2024-03-08T07:29:48;41.50;;;21.08;;
7263;SDS011;3673;52.480;13.348;2024-03-08T07:32:15;39.90;;;22.00;;
7263;SDS011;3673;52.480;13.348;2024-03-08T07:34:46;37.22;;;21.58;;
7263;SDS011;3673;52.480;13.348;2024-03-08T07:37:15;39.47;;;21.20;;
7263;SDS011;3673;52.480;13.348;2024-03-08T07:39:42;36.25;;;21.33;;
7263;SDS011;3673;52.480;13.348;2024-03-08T07:42:09;40.67;;;22.40;;
7263;SDS011;3673;52.480;13.348;2024-03-08T07:44:36;34.00;;;20.73;;
7263;SDS011;3673;52.480;13.348;2024-03-08T07:47:05;39.03;;;21.88;;
7263;SDS011;3673;52.480;13.348;2024-03-08T07:49:34;37.22;;;21.17;;
7263;SDS011;3673;52.480;13.348;2024-03-08T07:52:02;39.45;;;21.52;;
7263;SDS011;3673;52.480;13.348;2024-03-08T07:54:32;42.80;;;22.90;;
7263;SDS011;3673;52.480;13.348;2024-03-08T07:56:59;44.05;;;22.65;;
7263;SDS011;3673;52.480;13.348;2024-03-08T07:59:26;38.10;;;21.40;;
7263;SDS011;3673;52.480;13.348;2024-03-08T08:01:54;41.00;;;21.13;;
7263;SDS011;3673;52.480;13.348;2024-03-08T08:04:22;39.78;;;21.63;;
7263;SDS011;3673;52.480;13.348;2024-03-08T08:06:49;39.88;;;22.45;;
7263;SDS011;3673;52.480;13.348;2024-03-08T08:09:16;38.67;;;21.92;;
7263;SDS011;3673;52.480;13.348;2024-03-08T08:11:53;43.65;;;23.52;;
7263;SDS011;3673;52.480;13.348;2024-03-08T08:14:20;43.53;;;22.58;;
7263;SDS011;3673;52.480;13.348;2024-03-08T08:16:47;38.58;;;20.73;;
7263;SDS011;3673;52.480;13.348;2024-03-08T08:19:16;36.00;;;21.25;;
7263;SDS011;3673;52.480;13.348;2024-03-08T08:21:44;36.85;;;22.20;;
7263;SDS011;3673;52.480;13.348;2024-03-08T08:24:11;36.75;;;20.92;;
7263;SDS011;3673;52.480;13.348;2024-03-08T08:26:38;42.33;;;22.73;;
7263;SDS011;3673;52.480;13.348;2024-03-08T08:29:04;36.45;;;20.70;;
7263;SDS011;3673;52.480;13.348;2024-03-08T08:31:31;34.83;;;21.27;;
7263;SDS011;3673;52.480;13.348;2024-03-08T08:33:58;33.30;;;19.33;;
7263;SDS011;3673;52.480;13.348;2024-03-08T08:36:25;35.13;;;19.30;;
7263;SDS011;3673;52.480;13.348;2024-03-08T08:38:56;37.53;;;20.92;;
7263;SDS011;3673;52.480;13.348;2024-03-08T08:41:23;37.40;;;21.33;;
7263;SDS011;3673;52.480;13.348;2024-03-08T08:43:50;35.60;;;21.20;;
7263;SDS011;3673;52.480;13.348;2024-03-08T08:46:17;36.53;;;19.67;;
7263;SDS011;3673;52.480;13.348;2024-03-08T08:48:44;33.70;;;19.75;;
7263;SDS011;3673;52.480;13.348;2024-03-08T08:51:11;30.23;;;18.55;;
7263;SDS011;3673;52.480;13.348;2024-03-08T08:53:38;31.67;;;19.35;;
7263;SDS011;3673;52.480;13.348;2024-03-08T08:56:09;38.83;;;19.50;;
7263;SDS011;3673;52.480;13.348;2024-03-08T08:58:37;30.33;;;18.15;;
7263;SDS011;3673;52.480;13.348;2024-03-08T09:01:05;35.15;;;19.90;;
7263;SDS011;3673;52.480;13.348;2024-03-08T09:03:32;33.28;;;20.13;;
7263;SDS011;3673;52.480;13.348;2024-03-08T09:05:59;31.13;;;19.23;;
7263;SDS011;3673;52.480;13.348;2024-03-08T09:08:27;36.53;;;19.55;;
7263;SDS011;3673;52.480;13.348;2024-03-08T09:10:54;36.65;;;20.50;;
7263;SDS011;3673;52.480;13.348;2024-03-08T09:13:22;34.85;;;21.17;;
7263;SDS011;3673;52.480;13.348;2024-03-08T09:15:49;36.03;;;20.25;;
7263;SDS011;3673;52.480;13.348;2024-03-08T09:18:17;35.10;;;20.42;;
7263;SDS011;3673;52.480;13.348;2024-03-08T09:20:45;36.63;;;21.85;;
7263;SDS011;3673;52.480;13.348;2024-03-08T09:23:12;33.75;;;19.52;;
7263;SDS011;3673;52.480;13.348;2024-03-08T09:25:40;40.47;;;23.08;;
7263;SDS011;3673;52.480;13.348;2024-03-08T09:28:07;37.25;;;21.88;;
7263;SDS011;3673;52.480;13.348;2024-03-08T09:30:35;37.05;;;23.00;;
7263;SDS011;3673;52.480;13.348;2024-03-08T09:33:02;38.45;;;22.00;;
7263;SDS011;3673;52.480;13.348;2024-03-08T09:35:29;39.15;;;22.02;;
7263;SDS011;3673;52.480;13.348;2024-03-08T09:37:55;36.92;;;20.38;;
7263;SDS011;3673;52.480;13.348;2024-03-08T09:40:22;32.08;;;19.70;;
7263;SDS011;3673;52.480;13.348;2024-03-08T09:42:51;31.90;;;19.63;;
7263;SDS011;3673;52.480;13.348;2024-03-08T09:45:19;36.72;;;20.23;;
7263;SDS011;3673;52.480;13.348;2024-03-08T09:47:50;33.88;;;20.95;;
7263;SDS011;3673;52.480;13.348;2024-03-08T09:50:18;34.92;;;21.05;;
7263;SDS011;3673;52.480;13.348;2024-03-08T09:52:46;35.53;;;20.17;;
7263;SDS011;3673;52.480;13.348;2024-03-08T09:55:15;33.90;;;19.27;;
7263;SDS011;3673;52.480;13.348;2024-03-08T09:57:47;33.65;;;18.17;;
7263;SDS011;3673;52.480;13.348;2024-03-08T10:00:41;28.25;;;16.83;;
7263;SDS011;3673;52.480;13.348;2024-03-08T10:03:09;31.52;;;17.88;;
7263;SDS011;3673;52.480;13.348;2024-03-08T10:05:39;29.30;;;17.40;;
7263;SDS011;3673;52.480;13.348;2024-03-08T10:08:07;30.85;;;18.27;;
7263;SDS011;3673;52.480;13.348;2024-03-08T10:10:34;30.25;;;17.60;;
7263;SDS011;3673;52.480;13.348;2024-03-08T10:13:01;29.95;;;18.25;;
7263;SDS011;3673;52.480;13.348;2024-03-08T10:15:27;29.83;;;17.98;;
7263;SDS011;3673;52.480;13.348;2024-03-08T10:17:55;29.92;;;18.02;;
7263;SDS011;3673;52.480;13.348;2024-03-08T10:20:24;25.20;;;16.73;;
7263;SDS011;3673;52.480;13.348;2024-03-08T10:22:51;28.05;;;16.67;;
7263;SDS011;3673;52.480;13.348;2024-03-08T10:25:19;27.42;;;15.60;;
7263;SDS011;3673;52.480;13.348;2024-03-08T10:27:46;25.33;;;14.80;;
7263;SDS011;3673;52.480;13.348;2024-03-08T10:30:13;28.55;;;17.27;;
7263;SDS011;3673;52.480;13.348;2024-03-08T10:32:44;26.75;;;17.33;;
7263;SDS011;3673;52.480;13.348;2024-03-08T10:35:12;26.95;;;16.13;;
7263;SDS011;3673;52.480;13.348;2024-03-08T10:37:42;26.17;;;15.80;;
7263;SDS011;3673;52.480;13.348;2024-03-08T10:40:13;25.58;;;15.18;;
7263;SDS011;3673;52.480;13.348;2024-03-08T10:42:47;23.17;;;15.27;;
7263;SDS011;3673;52.480;13.348;2024-03-08T10:45:21;27.90;;;17.00;;
7263;SDS011;3673;52.480;13.348;2024-03-08T10:48:03;25.15;;;14.52;;
7263;SDS011;3673;52.480;13.348;2024-03-08T10:50:48;21.65;;;13.98;;
7263;SDS011;3673;52.480;13.348;2024-03-08T10:53:16;20.50;;;14.35;;
7263;SDS011;3673;52.480;13.348;2024-03-08T10:55:46;22.65;;;15.00;;
7263;SDS011;3673;52.480;13.348;2024-03-08T10:58:13;19.02;;;13.40;;
7263;SDS011;3673;52.480;13.348;2024-03-08T11:00:40;24.00;;;13.82;;
7263;SDS011;3673;52.480;13.348;2024-03-08T11:03:07;19.17;;;12.50;;
7263;SDS011;3673;52.480;13.348;2024-03-08T11:06:18;24.13;;;14.52;;
7263;SDS011;3673;52.480;13.348;2024-03-08T11:08:56;19.13;;;12.82;;
7263;SDS011;3673;52.480;13.348;2024-03-08T11:11:24;19.15;;;11.90;;
7263;SDS011;3673;52.480;13.348;2024-03-08T11:13:55;19.45;;;12.77;;
7263;SDS011;3673;52.480;13.348;2024-03-08T11:16:38;17.88;;;12.50;;
7263;SDS011;3673;52.480;13.348;2024-03-08T11:21:57;19.13;;;12.55;;
7263;SDS011;3673;52.480;13.348;2024-03-08T11:24:26;18.33;;;11.82;;
7263;SDS011;3673;52.480;13.348;2024-03-08T11:26:56;18.58;;;13.95;;
7263;SDS011;3673;52.480;13.348;2024-03-08T11:32:11;19.80;;;14.60;;
7263;SDS011;3673;52.480;13.348;2024-03-08T11:34:40;22.52;;;15.60;;
7263;SDS011;3673;52.480;13.348;2024-03-08T11:37:12;23.10;;;14.77;;
7263;SDS011;3673;52.480;13.348;2024-03-08T11:39:42;19.02;;;13.10;;
7263;SDS011;3673;52.480;13.348;2024-03-08T11:42:13;18.92;;;12.98;;
7263;SDS011;3673;52.480;13.348;2024-03-08T11:44:40;19.23;;;14.07;;
7263;SDS011;3673;52.480;13.348;2024-03-08T11:47:09;18.15;;;13.30;;
7263;SDS011;3673;52.480;13.348;2024-03-08T11:49:36;18.00;;;13.15;;
7263;SDS011;3673;52.480;13.348;2024-03-08T11:52:03;19.85;;;14.23;;
7263;SDS011;3673;52.480;13.348;2024-03-08T11:54:31;18.23;;;13.45;;
7263;SDS011;3673;52.480;13.348;2024-03-08T11:57:02;22.45;;;13.90;;
7263;SDS011;3673;52.480;13.348;2024-03-08T11:59:30;21.85;;;15.45;;
7263;SDS011;3673;52.480;13.348;2024-03-08T12:01:58;19.92;;;13.80;;
7263;SDS011;3673;52.480;13.348;2024-03-08T12:04:30;18.95;;;13.88;;
7263;SDS011;3673;52.480;13.348;2024-03-08T12:06:59;19.83;;;14.10;;
7263;SDS011;3673;52.480;13.348;2024-03-08T12:09:27;22.65;;;15.00;;
7263;SDS011;3673;52.480;13.348;2024-03-08T12:11:55;17.92;;;12.88;;
7263;SDS011;3673;52.480;13.348;2024-03-08T12:14:23;20.20;;;11.90;;
7263;SDS011;3673;52.480;13.348;2024-03-08T12:16:50;15.57;;;12.00;;
7263;SDS011;3673;52.480;13.348;2024-03-08T12:19:17;18.48;;;12.55;;
7263;SDS011;3673;52.480;13.348;2024-03-08T12:21:44;16.40;;;11.43;;
7263;SDS011;3673;52.480;13.348;2024-03-08T12:24:14;17.20;;;11.95;;
7263;SDS011;3673;52.480;13.348;2024-03-08T12:26:44;24.20;;;12.75;;
7263;SDS011;3673;52.480;13.348;2024-03-08T12:29:16;17.13;;;11.80;;
7263;SDS011;3673;52.480;13.348;2024-03-08T12:31:49;16.20;;;11.63;;
7263;SDS011;3673;52.480;13.348;2024-03-08T12:34:18;18.45;;;12.48;;
7263;SDS011;3673;52.480;13.348;2024-03-08T12:36:46;17.63;;;12.88;;
7263;SDS011;3673;52.480;13.348;2024-03-08T12:39:17;23.52;;;15.93;;
7263;SDS011;3673;52.480;13.348;2024-03-08T12:41:51;25.13;;;16.58;;
7263;SDS011;3673;52.480;13.348;2024-03-08T12:44:19;23.80;;;17.50;;
7263;SDS011;3673;52.480;13.348;2024-03-08T12:46:46;20.80;;;14.98;;
7263;SDS011;3673;52.480;13.348;2024-03-08T12:49:16;21.00;;;12.75;;
7263;SDS011;3673;52.480;13.348;2024-03-08T12:51:43;23.67;;;17.05;;
7263;SDS011;3673;52.480;13.348;2024-03-08T12:54:10;22.95;;;15.80;;
7263;SDS011;3673;52.480;13.348;2024-03-08T12:56:37;22.42;;;15.95;;
7263;SDS011;3673;52.480;13.348;2024-03-08T12:59:05;22.80;;;15.73;;
7263;SDS011;3673;52.480;13.348;2024-03-08T13:01:33;20.95;;;15.90;;
7263;SDS011;3673;52.480;13.348;2024-03-08T13:04:03;20.85;;;16.60;;
7263;SDS011;3673;52.480;13.348;2024-03-08T13:06:36;20.95;;;15.90;;
7263;SDS011;3673;52.480;13.348;2024-03-08T13:09:03;23.67;;;16.88;;
7263;SDS011;3673;52.480;13.348;2024-03-08T13:11:32;20.17;;;15.13;;
7263;SDS011;3673;52.480;13.348;2024-03-08T13:14:02;21.63;;;15.85;;
7263;SDS011;3673;52.480;13.348;2024-03-08T13:16:30;22.58;;;16.67;;
7263;SDS011;3673;52.480;13.348;2024-03-08T13:18:57;25.33;;;17.02;;
7263;SDS011;3673;52.480;13.348;2024-03-08T13:21:26;25.35;;;17.63;;
7263;SDS011;3673;52.480;13.348;2024-03-08T13:23:54;23.10;;;16.85;;
7263;SDS011;3673;52.480;13.348;2024-03-08T13:26:21;23.02;;;16.27;;
7263;SDS011;3673;52.480;13.348;2024-03-08T13:28:50;22.63;;;15.70;;
7263;SDS011;3673;52.480;13.348;2024-03-08T13:31:18;25.90;;;17.45;;
7263;SDS011;3673;52.480;13.348;2024-03-08T13:33:45;26.30;;;19.17;;
7263;SDS011;3673;52.480;13.348;2024-03-08T13:36:12;25.40;;;17.38;;
7263;SDS011;3673;52.480;13.348;2024-03-08T13:38:43;24.85;;;18.48;;
7263;SDS011;3673;52.480;13.348;2024-03-08T13:41:11;25.65;;;17.80;;
7263;SDS011;3673;52.480;13.348;2024-03-08T13:43:39;26.88;;;16.20;;
7263;SDS011;3673;52.480;13.348;2024-03-08T13:46:06;20.83;;;15.25;;
7263;SDS011;3673;52.480;13.348;2024-03-08T13:48:35;25.13;;;16.08;;
7263;SDS011;3673;52.480;13.348;2024-03-08T13:51:03;23.40;;;16.77;;
7263;SDS011;3673;52.480;13.348;2024-03-08T13:53:30;22.60;;;16.45;;
7263;SDS011;3673;52.480;13.348;2024-03-08T13:55:59;25.58;;;16.63;;
7263;SDS011;3673;52.480;13.348;2024-03-08T13:58:26;20.73;;;15.50;;
7263;SDS011;3673;52.480;13.348;2024-03-08T14:00:53;22.48;;;15.32;;
7263;SDS011;3673;52.480;13.348;2024-03-08T14:03:20;21.30;;;15.85;;
7263;SDS011;3673;52.480;13.348;2024-03-08T14:05:48;20.83;;;15.70;;
7263;SDS011;3673;52.480;13.348;2024-03-08T14:08:15;22.25;;;14.95;;
7263;SDS011;3673;52.480;13.348;2024-03-08T14:10:42;19.48;;;15.30;;
7263;SDS011;3673;52.480;13.348;2024-03-08T14:13:13;23.67;;;15.15;;
7263;SDS011;3673;52.480;13.348;2024-03-08T14:15:41;23.05;;;16.05;;
7263;SDS011;3673;52.480;13.348;2024-03-08T14:18:09;27.92;;;18.23;;
7263;SDS011;3673;52.480;13.348;2024-03-08T14:20:38;24.15;;;17.42;;
7263;SDS011;3673;52.480;13.348;2024-03-08T14:23:04;21.83;;;15.77;;
7263;SDS011;3673;52.480;13.348;2024-03-08T14:25:33;21.13;;;14.15;;
7263;SDS011;3673;52.480;13.348;2024-03-08T14:28:00;17.90;;;13.02;;
7263;SDS011;3673;52.480;13.348;2024-03-08T14:30:30;25.88;;;17.40;;
7263;SDS011;3673;52.480;13.348;2024-03-08T14:33:02;24.65;;;17.70;;
7263;SDS011;3673;52.480;13.348;2024-03-08T14:35:33;20.67;;;14.85;;
7263;SDS011;3673;52.480;13.348;2024-03-08T14:38:00;24.40;;;17.33;;
7263;SDS011;3673;52.480;13.348;2024-03-08T14:40:28;22.52;;;15.95;;
7263;SDS011;3673;52.480;13.348;2024-03-08T14:42:55;27.65;;;19.90;;
7263;SDS011;3673;52.480;13.348;2024-03-08T14:45:22;27.17;;;17.88;;